Hauptseite
METAR-TAF:

METAR-TAF

Flughäfen :

Flughafen Portorož

Portorož, Slowenien

Breite: 45-31N, Länge: 013-34E, Höhe: 95 m

Beobachtung

Neuester Wetterbericht von vor 37 Minuten, um 07:30 UTC
Wind 9 kt aus Ost/Südost
Temperatur -1°C
Luftfeuchtigkeit 80%
Luftdruck 1026 hPa
Sichtweite 10 km oder mehr
Leicht bewölkt in der Höhe von 4500 ft

METAR: LJPZ 220730Z 11009KT 9999 FEW045 M01/M04 Q1026

Zeit: 09:07 (08:07 UTC)

Prognose

Neuester Wetterbericht von vor 3 Stunden und 7 Minuten, um 05:00 UTC
Gültige Prognose vom 22 um 06 UTC bis 22 um 15 UTC
Wind 5 kt aus Ost/Südost
Sichtweite 10 km oder mehr
Leicht bewölkt in der Höhe von 3000 ft
Wahrscheinlichkeit 30% :
Zeitweise
vom 22 um 06 UTC bis 22 um 12 UTC
Durchbrochene Bewölkung in der Höhe von 2000 ft

TAF: LJPZ 220500Z 2206/2215 12005KT 9999 FEW030 PROB30 TEMPO 2206/2212 BKN020

Wetterbeobachtungen und Prognosen von mehr als 4000 Flughäfen (METAR und TAF Bericht).

Die verfügbaren Stationen werden durch gelbe und rote Markierungen auf der Karte dargestellt.

Führen Sie die Maus auf sie, um den Namen der Station zu sehen.

Darauf klicken, um die Beobachtung von Wetterbeobachtungen und Prognosen zu sehen.

Um die Karte zu ändern : klicken Sie auf den grünen Tasten mit einem schwarzen Kreuz Zum Vergrößern, auf den grünen Button mit einem Gedankenstrich zu verkleinern, oder auf die grünen Pfeile für benachbarte Karten.


METAR-TAF: